createdAt,value
2022-11-05T00:01:02.227Z,11.10
2022-11-05T00:03:47.612Z,11.20
2022-11-05T00:06:33.233Z,11.10
2022-11-05T00:09:18.769Z,11.10
2022-11-05T00:12:05.936Z,11.10
2022-11-05T00:14:51.454Z,11.10
2022-11-05T00:17:18.439Z,11.10
2022-11-05T00:19:45.403Z,11.20
2022-11-05T00:22:30.810Z,11.10
2022-11-05T00:25:16.262Z,11.20
2022-11-05T00:27:51.448Z,11.10
2022-11-05T00:30:28.214Z,11.20
2022-11-05T00:33:02.806Z,11.20
2022-11-05T00:35:30.678Z,11.20
2022-11-05T00:37:57.857Z,11.20
2022-11-05T00:40:24.938Z,11.20
2022-11-05T00:43:10.776Z,11.20
2022-11-05T00:45:38.054Z,11.30
2022-11-05T00:48:24.058Z,11.20
2022-11-05T00:50:51.055Z,11.20
2022-11-05T00:53:18.210Z,11.20
2022-11-05T00:55:46.451Z,11.20
2022-11-05T00:58:15.908Z,11.20
2022-11-05T01:00:45.278Z,11.20
2022-11-05T01:03:15.186Z,11.20
2022-11-05T01:05:48.294Z,11.20
2022-11-05T01:08:18.038Z,11.10
2022-11-05T01:10:47.644Z,11.00
2022-11-05T01:13:17.942Z,10.90
2022-11-05T01:15:46.233Z,10.90
2022-11-05T01:18:13.564Z,10.80
2022-11-05T01:20:40.927Z,10.80
2022-11-05T01:23:13.269Z,10.70
2022-11-05T01:25:44.348Z,10.70
2022-11-05T01:28:11.509Z,10.70
2022-11-05T01:30:39.050Z,10.70
2022-11-05T01:33:06.518Z,10.70
2022-11-05T01:35:33.463Z,10.70
2022-11-05T01:38:00.503Z,10.70
2022-11-05T01:40:27.943Z,10.70
2022-11-05T01:42:55.112Z,10.70
2022-11-05T01:45:28.994Z,10.70
2022-11-05T01:48:01.954Z,10.70
2022-11-05T01:50:55.548Z,10.70
2022-11-05T01:53:43.969Z,10.70
2022-11-05T01:56:19.449Z,10.70
2022-11-05T01:59:05.175Z,10.70
2022-11-05T02:01:33.001Z,10.70
2022-11-05T02:04:10.328Z,10.70
2022-11-05T02:06:46.151Z,10.70
2022-11-05T02:09:20.281Z,10.70
2022-11-05T02:11:48.272Z,10.70
2022-11-05T02:14:15.200Z,10.70
2022-11-05T02:16:50.942Z,10.70
2022-11-05T02:19:36.372Z,10.60
2022-11-05T02:22:22.127Z,10.70
2022-11-05T02:25:07.811Z,10.70
2022-11-05T02:28:07.215Z,10.70
2022-11-05T02:31:04.307Z,10.70
2022-11-05T02:33:39.929Z,10.70
2022-11-05T02:36:28.992Z,10.70
2022-11-05T02:39:01.968Z,10.70
2022-11-05T02:41:47.639Z,10.70
2022-11-05T02:44:35.907Z,10.60
2022-11-05T02:47:18.147Z,10.60
2022-11-05T02:49:57.537Z,10.60
2022-11-05T02:52:42.413Z,10.60
2022-11-05T02:55:51.513Z,10.60
2022-11-05T02:58:18.617Z,10.50
2022-11-05T03:00:50.482Z,10.50
2022-11-05T03:03:19.587Z,10.50
2022-11-05T03:06:14.026Z,10.40
2022-11-05T03:08:56.040Z,10.40
2022-11-05T03:11:26.573Z,10.30
2022-11-05T03:14:07.790Z,10.20
2022-11-05T03:16:42.863Z,10.20
2022-11-05T03:19:49.091Z,10.10
2022-11-05T03:22:24.604Z,10.10
2022-11-05T03:24:57.108Z,10.00
2022-11-05T03:27:29.602Z,10.10
2022-11-05T03:30:08.110Z,10.00
2022-11-05T03:32:44.237Z,9.90
2022-11-05T03:35:31.928Z,9.90
2022-11-05T03:38:06.543Z,9.80
2022-11-05T03:40:37.191Z,9.80
2022-11-05T03:43:08.194Z,9.70
2022-11-05T03:45:57.403Z,9.70
2022-11-05T03:48:29.172Z,9.70
2022-11-05T03:51:10.676Z,9.70
2022-11-05T03:53:44.286Z,9.70
2022-11-05T03:56:36.059Z,9.60
2022-11-05T03:59:04.410Z,9.60
2022-11-05T04:01:32.137Z,9.60
2022-11-05T04:03:59.168Z,9.60
2022-11-05T04:06:44.580Z,9.60
2022-11-05T04:09:29.990Z,9.60
2022-11-05T04:12:15.489Z,9.60
2022-11-05T04:14:42.598Z,9.50
2022-11-05T04:17:10.024Z,9.50
2022-11-05T04:19:57.742Z,9.50
2022-11-05T04:22:45.614Z,9.50
2022-11-05T04:25:14.427Z,9.50
2022-11-05T04:27:41.481Z,9.50
2022-11-05T04:30:24.420Z,9.50
2022-11-05T04:33:03.036Z,9.50
2022-11-05T04:35:41.762Z,9.50
2022-11-05T04:38:11.125Z,9.40
2022-11-05T04:40:38.317Z,9.50
2022-11-05T04:43:09.360Z,9.50
2022-11-05T04:45:41.015Z,9.50
2022-11-05T04:48:08.381Z,9.50
2022-11-05T04:50:35.360Z,9.50
2022-11-05T04:53:02.620Z,9.40
2022-11-05T04:55:29.618Z,9.40
2022-11-05T04:57:56.593Z,9.40
2022-11-05T05:00:24.133Z,9.40
2022-11-05T05:02:51.382Z,9.40
2022-11-05T05:05:18.482Z,9.40
2022-11-05T05:07:45.754Z,9.40
2022-11-05T05:10:13.028Z,9.40
2022-11-05T05:12:40.203Z,9.40
2022-11-05T05:15:07.587Z,9.40
2022-11-05T05:17:34.651Z,9.40
2022-11-05T05:20:20.240Z,9.40
2022-11-05T05:22:56.192Z,9.40
2022-11-05T05:25:23.419Z,9.40
2022-11-05T05:27:50.636Z,9.40
2022-11-05T05:30:18.410Z,9.40
2022-11-05T05:32:45.393Z,9.40
2022-11-05T05:35:12.441Z,9.40
2022-11-05T05:37:39.544Z,9.40
2022-11-05T05:40:07.156Z,9.40
2022-11-05T05:42:37.566Z,9.40
2022-11-05T05:45:07.503Z,9.40
2022-11-05T05:47:34.393Z,9.40
2022-11-05T05:50:01.378Z,9.40
2022-11-05T05:52:28.448Z,9.40
2022-11-05T05:54:55.403Z,9.40
2022-11-05T05:57:22.286Z,9.40
2022-11-05T05:59:49.268Z,9.40
2022-11-05T06:02:16.378Z,9.40
2022-11-05T06:04:43.569Z,9.40
2022-11-05T06:07:10.536Z,9.30
2022-11-05T06:09:37.510Z,9.30
2022-11-05T06:12:04.775Z,9.20
2022-11-05T06:14:31.752Z,9.30
2022-11-05T06:16:58.688Z,9.30
2022-11-05T06:19:25.635Z,9.20
2022-11-05T06:21:52.745Z,9.20
2022-11-05T06:24:19.724Z,9.20
2022-11-05T06:26:46.644Z,9.20
2022-11-05T06:29:13.664Z,9.10
2022-11-05T06:31:40.626Z,9.10
2022-11-05T06:34:07.759Z,9.10
2022-11-05T06:36:34.820Z,9.10
2022-11-05T06:39:01.675Z,9.00
2022-11-05T06:41:28.567Z,9.10
2022-11-05T06:43:55.460Z,9.00
2022-11-05T06:46:22.403Z,9.00
2022-11-05T06:48:49.327Z,9.00
2022-11-05T06:51:16.275Z,9.00
2022-11-05T06:53:43.187Z,9.00
2022-11-05T16:19:40.361Z,9.00
2022-11-05T16:22:08.403Z,9.50
2022-11-05T16:24:35.391Z,9.50
2022-11-05T16:27:05.734Z,9.50
2022-11-05T16:29:39.083Z,9.50
2022-11-05T16:32:33.799Z,9.50
2022-11-05T16:35:04.063Z,9.50
2022-11-05T16:37:37.674Z,9.50
2022-11-05T16:40:14.160Z,9.50
2022-11-05T16:42:41.896Z,9.50
2022-11-05T16:45:14.834Z,9.40
2022-11-05T16:47:43.266Z,9.40
2022-11-05T16:50:25.724Z,9.40
2022-11-05T16:52:53.656Z,9.40
2022-11-05T16:55:20.884Z,9.40
2022-11-05T16:57:53.261Z,9.40
2022-11-05T17:00:21.449Z,9.40
2022-11-05T17:02:49.535Z,9.30
2022-11-05T17:05:29.075Z,9.30
2022-11-05T17:07:56.889Z,9.30
2022-11-05T17:10:25.615Z,9.30
2022-11-05T17:12:53.558Z,9.30
2022-11-05T17:15:27.435Z,9.30
2022-11-05T17:17:58.597Z,9.30
2022-11-05T17:20:44.155Z,9.30
2022-11-05T17:23:14.119Z,9.30
2022-11-05T17:25:43.383Z,9.30
2022-11-05T17:28:11.090Z,9.20
2022-11-05T17:30:41.371Z,9.20
2022-11-05T17:33:10.890Z,9.20
2022-11-05T17:35:40.115Z,9.20
2022-11-05T17:38:07.164Z,9.20
2022-11-05T17:40:35.458Z,9.20
2022-11-05T17:43:02.560Z,9.20
2022-11-05T17:45:30.013Z,9.30
2022-11-05T17:47:57.157Z,9.30
2022-11-05T17:50:24.114Z,9.20
2022-11-05T17:52:51.091Z,9.30
2022-11-05T17:55:18.257Z,9.20
2022-11-05T17:57:47.604Z,9.20
2022-11-05T18:00:20.848Z,9.20
2022-11-05T18:02:49.517Z,9.20
2022-11-05T18:05:21.736Z,9.20
2022-11-05T18:07:49.902Z,9.20
2022-11-05T18:10:17.374Z,9.20
2022-11-05T18:12:45.196Z,9.20
2022-11-05T18:15:13.368Z,9.20
2022-11-05T18:17:40.800Z,9.20
2022-11-05T18:20:15.747Z,9.20
2022-11-05T18:22:46.153Z,9.20
2022-11-05T18:25:14.060Z,9.20
2022-11-05T18:27:41.729Z,9.20
2022-11-05T18:30:09.824Z,9.20
2022-11-05T18:32:37.231Z,9.20
2022-11-05T18:35:04.816Z,9.20
2022-11-05T18:37:31.983Z,9.20
2022-11-05T18:39:59.019Z,9.20
2022-11-05T18:42:25.974Z,9.20
2022-11-05T18:44:52.953Z,9.20
2022-11-05T18:47:20.055Z,9.10
2022-11-05T18:49:47.169Z,9.20
2022-11-05T18:52:14.250Z,9.20
2022-11-05T18:54:41.918Z,9.20
2022-11-05T18:57:08.837Z,9.20
2022-11-05T18:59:39.676Z,9.10
2022-11-05T19:02:08.613Z,9.10
2022-11-05T19:04:39.579Z,9.10
2022-11-05T19:07:08.110Z,9.10
2022-11-05T19:09:35.702Z,9.10
2022-11-05T19:12:07.481Z,9.10
2022-11-05T19:14:35.940Z,9.10
2022-11-05T19:17:03.319Z,9.10
2022-11-05T19:19:30.249Z,9.10
2022-11-05T19:21:57.239Z,9.10
2022-11-05T19:24:24.369Z,9.10
2022-11-05T19:26:51.320Z,9.10
2022-11-05T19:29:18.521Z,9.00
2022-11-05T19:31:45.460Z,9.00
2022-11-05T19:34:14.676Z,9.00
2022-11-05T19:36:42.494Z,9.00
2022-11-05T19:39:13.213Z,9.10
2022-11-05T19:41:41.056Z,9.00
2022-11-05T19:44:08.620Z,9.00
2022-11-05T19:46:35.741Z,9.00
2022-11-05T19:49:02.834Z,9.10
2022-11-05T19:51:31.413Z,9.00
2022-11-05T19:54:00.628Z,9.10
2022-11-05T19:56:32.978Z,9.00
2022-11-05T19:59:01.369Z,9.00
2022-11-05T20:01:30.096Z,9.00
2022-11-05T20:03:58.945Z,9.00
2022-11-05T20:06:32.393Z,9.00
2022-11-05T20:09:20.936Z,9.00
2022-11-05T20:11:50.628Z,9.00
2022-11-05T20:14:17.857Z,9.00
2022-11-05T20:16:46.420Z,9.00
2022-11-05T20:19:15.906Z,9.00
2022-11-05T20:21:43.070Z,8.90
2022-11-05T20:24:12.634Z,8.90
2022-11-05T20:26:39.955Z,8.90
2022-11-05T20:29:07.232Z,8.90
2022-11-05T20:31:34.425Z,8.90
2022-11-05T20:34:01.603Z,9.00
2022-11-05T20:36:28.809Z,8.90
2022-11-05T20:39:02.902Z,8.90
2022-11-05T20:41:30.870Z,8.90
2022-11-05T20:43:58.165Z,8.90
2022-11-05T20:46:25.721Z,8.90
2022-11-05T20:48:54.163Z,8.90
2022-11-05T20:51:23.406Z,9.00
2022-11-05T20:53:57.085Z,8.90
2022-11-05T20:56:31.944Z,8.90
2022-11-05T20:59:00.608Z,8.90
2022-11-05T21:01:29.869Z,9.00
2022-11-05T21:03:57.967Z,9.00
2022-11-05T21:06:25.283Z,9.00
2022-11-05T21:08:52.841Z,9.00
2022-11-05T21:11:20.570Z,9.00
2022-11-05T21:13:47.936Z,9.00
2022-11-05T21:16:18.699Z,9.00
2022-11-05T21:18:47.056Z,9.00
2022-11-05T21:21:17.508Z,9.00
2022-11-05T21:23:46.292Z,9.00
2022-11-05T21:26:14.942Z,9.00
2022-11-05T21:28:42.603Z,9.10
2022-11-05T21:31:10.512Z,9.10
2022-11-05T21:33:38.129Z,9.10
2022-11-05T21:36:10.818Z,9.10
2022-11-05T21:38:38.511Z,9.10
2022-11-05T21:41:06.673Z,9.10
2022-11-05T21:43:34.749Z,9.00
2022-11-05T21:46:03.726Z,9.00
2022-11-05T21:48:31.777Z,9.00
2022-11-05T21:51:17.672Z,9.00
2022-11-05T21:54:03.463Z,9.00
2022-11-05T21:56:49.488Z,9.00
2022-11-05T21:59:38.486Z,9.00
2022-11-05T22:02:07.019Z,9.00
2022-11-05T22:04:36.153Z,9.00
2022-11-05T22:07:04.158Z,9.00
2022-11-05T22:09:31.303Z,9.00
2022-11-05T22:12:00.683Z,9.00
2022-11-05T22:14:29.000Z,8.90
2022-11-05T22:16:56.397Z,8.90
2022-11-05T22:19:24.111Z,8.90
2022-11-05T22:21:51.023Z,8.90
2022-11-05T22:24:18.717Z,8.90
2022-11-05T22:26:46.043Z,8.90
2022-11-05T22:29:13.539Z,8.90
2022-11-05T22:31:40.778Z,8.90
2022-11-05T22:34:09.259Z,8.90
2022-11-05T22:36:36.573Z,8.90
2022-11-05T22:39:04.079Z,8.90
2022-11-05T22:41:31.129Z,9.00
2022-11-05T22:43:58.655Z,9.00
2022-11-05T22:46:26.856Z,8.90
2022-11-05T22:48:54.162Z,8.90
